sensor_id;sensor_type;location;lat;lon;timestamp;temperature;humidity
23723;DHT22;12042;52.136;5.584;2022-07-29T00:00:15;17.70;99.90
23723;DHT22;12042;52.136;5.584;2022-07-29T00:02:40;17.70;99.90
23723;DHT22;12042;52.136;5.584;2022-07-29T00:05:08;17.70;99.90
23723;DHT22;12042;52.136;5.584;2022-07-29T00:07:34;17.60;99.90
23723;DHT22;12042;52.136;5.584;2022-07-29T00:09:59;17.50;99.90
23723;DHT22;12042;52.136;5.584;2022-07-29T00:12:25;17.50;99.90
23723;DHT22;12042;52.136;5.584;2022-07-29T00:14:52;17.60;99.90
23723;DHT22;12042;52.136;5.584;2022-07-29T00:17:17;17.70;99.90
23723;DHT22;12042;52.136;5.584;2022-07-29T00:19:43;17.40;99.90
23723;DHT22;12042;52.136;5.584;2022-07-29T00:22:08;17.40;99.90
23723;DHT22;12042;52.136;5.584;2022-07-29T00:24:34;17.40;99.90
23723;DHT22;12042;52.136;5.584;2022-07-29T00:27:00;17.40;99.90
23723;DHT22;12042;52.136;5.584;2022-07-29T00:29:25;17.40;99.90
23723;DHT22;12042;52.136;5.584;2022-07-29T00:31:51;17.30;99.90
23723;DHT22;12042;52.136;5.584;2022-07-29T00:34:17;17.60;99.90
23723;DHT22;12042;52.136;5.584;2022-07-29T00:37:01;17.30;99.90
23723;DHT22;12042;52.136;5.584;2022-07-29T00:39:26;17.30;99.90
23723;DHT22;12042;52.136;5.584;2022-07-29T00:41:52;17.40;99.90
23723;DHT22;12042;52.136;5.584;2022-07-29T00:44:18;17.20;99.90
23723;DHT22;12042;52.136;5.584;2022-07-29T00:46:43;17.20;99.90
23723;DHT22;12042;52.136;5.584;2022-07-29T00:49:09;17.50;99.90
23723;DHT22;12042;52.136;5.584;2022-07-29T00:51:36;17.10;99.90
23723;DHT22;12042;52.136;5.584;2022-07-29T00:54:03;17.10;99.90
23723;DHT22;12042;52.136;5.584;2022-07-29T00:56:30;17.10;99.90
23723;DHT22;12042;52.136;5.584;2022-07-29T00:58:57;17.10;99.90
23723;DHT22;12042;52.136;5.584;2022-07-29T01:01:22;17.00;99.90
23723;DHT22;12042;52.136;5.584;2022-07-29T01:03:48;17.10;99.90
23723;DHT22;12042;52.136;5.584;2022-07-29T01:06:16;17.00;99.90
23723;DHT22;12042;52.136;5.584;2022-07-29T01:08:42;17.00;99.90
23723;DHT22;12042;52.136;5.584;2022-07-29T01:11:08;17.00;99.90
23723;DHT22;12042;52.136;5.584;2022-07-29T01:13:34;17.20;99.90
23723;DHT22;12042;52.136;5.584;2022-07-29T01:16:07;16.90;99.90
23723;DHT22;12042;52.136;5.584;2022-07-29T01:18:39;16.90;99.90
23723;DHT22;12042;52.136;5.584;2022-07-29T01:26:45;16.90;99.90
23723;DHT22;12042;52.136;5.584;2022-07-29T01:32:18;16.80;99.90
23723;DHT22;12042;52.136;5.584;2022-07-29T01:35:18;16.90;99.90
23723;DHT22;12042;52.136;5.584;2022-07-29T01:37:50;16.90;99.90
23723;DHT22;12042;52.136;5.584;2022-07-29T01:40:40;16.90;99.90
23723;DHT22;12042;52.136;5.584;2022-07-29T01:43:14;16.80;99.90
23723;DHT22;12042;52.136;5.584;2022-07-29T01:45:45;17.00;99.90
23723;DHT22;12042;52.136;5.584;2022-07-29T01:48:19;16.70;99.90
23723;DHT22;12042;52.136;5.584;2022-07-29T01:50:49;16.90;99.90
23723;DHT22;12042;52.136;5.584;2022-07-29T01:53:27;16.90;99.90
23723;DHT22;12042;52.136;5.584;2022-07-29T01:55:56;16.60;99.90
23723;DHT22;12042;52.136;5.584;2022-07-29T01:58:23;16.70;99.90
23723;DHT22;12042;52.136;5.584;2022-07-29T02:00:50;16.80;99.90
23723;DHT22;12042;52.136;5.584;2022-07-29T02:03:18;16.60;99.90
23723;DHT22;12042;52.136;5.584;2022-07-29T02:05:45;16.60;99.90
23723;DHT22;12042;52.136;5.584;2022-07-29T02:08:13;16.60;99.90
23723;DHT22;12042;52.136;5.584;2022-07-29T02:10:42;16.90;99.90
23723;DHT22;12042;52.136;5.584;2022-07-29T02:13:09;16.90;99.90
23723;DHT22;12042;52.136;5.584;2022-07-29T02:15:37;16.60;99.90
23723;DHT22;12042;52.136;5.584;2022-07-29T02:18:11;16.60;99.90
23723;DHT22;12042;52.136;5.584;2022-07-29T02:20:39;16.80;99.90
23723;DHT22;12042;52.136;5.584;2022-07-29T02:23:06;16.70;99.90
23723;DHT22;12042;52.136;5.584;2022-07-29T02:25:32;16.70;99.90
23723;DHT22;12042;52.136;5.584;2022-07-29T02:27:59;16.70;99.90
23723;DHT22;12042;52.136;5.584;2022-07-29T02:30:27;16.70;99.90
23723;DHT22;12042;52.136;5.584;2022-07-29T02:32:55;16.70;99.90
23723;DHT22;12042;52.136;5.584;2022-07-29T02:35:21;16.60;99.90
23723;DHT22;12042;52.136;5.584;2022-07-29T02:37:48;16.60;99.90
23723;DHT22;12042;52.136;5.584;2022-07-29T02:40:38;16.60;99.90
23723;DHT22;12042;52.136;5.584;2022-07-29T02:43:05;16.50;99.90
23723;DHT22;12042;52.136;5.584;2022-07-29T02:45:33;16.50;99.90
23723;DHT22;12042;52.136;5.584;2022-07-29T02:48:03;16.50;99.90
23723;DHT22;12042;52.136;5.584;2022-07-29T02:50:34;16.50;99.90
23723;DHT22;12042;52.136;5.584;2022-07-29T02:53:16;16.50;99.90
23723;DHT22;12042;52.136;5.584;2022-07-29T02:55:58;16.60;99.90
23723;DHT22;12042;52.136;5.584;2022-07-29T02:58:30;16.50;99.90
23723;DHT22;12042;52.136;5.584;2022-07-29T03:00:59;16.40;99.90
23723;DHT22;12042;52.136;5.584;2022-07-29T03:03:30;16.50;99.90
23723;DHT22;12042;52.136;5.584;2022-07-29T03:05:57;16.50;99.90
23723;DHT22;12042;52.136;5.584;2022-07-29T03:08:24;16.60;99.90
23723;DHT22;12042;52.136;5.584;2022-07-29T03:10:52;16.40;99.90
23723;DHT22;12042;52.136;5.584;2022-07-29T03:13:19;16.50;99.90
23723;DHT22;12042;52.136;5.584;2022-07-29T03:15:45;16.60;99.90
23723;DHT22;12042;52.136;5.584;2022-07-29T03:18:12;16.30;99.90
23723;DHT22;12042;52.136;5.584;2022-07-29T03:20:39;16.40;99.90
23723;DHT22;12042;52.136;5.584;2022-07-29T03:23:05;16.50;99.90
23723;DHT22;12042;52.136;5.584;2022-07-29T03:25:30;16.50;99.90
23723;DHT22;12042;52.136;5.584;2022-07-29T03:27:56;16.50;99.90
23723;DHT22;12042;52.136;5.584;2022-07-29T03:30:22;16.50;99.90
23723;DHT22;12042;52.136;5.584;2022-07-29T03:32:49;16.50;99.90
23723;DHT22;12042;52.136;5.584;2022-07-29T03:35:15;16.40;99.90
23723;DHT22;12042;52.136;5.584;2022-07-29T03:37:45;16.60;99.90
23723;DHT22;12042;52.136;5.584;2022-07-29T03:40:15;16.60;99.90
23723;DHT22;12042;52.136;5.584;2022-07-29T03:42:43;16.40;99.90
23723;DHT22;12042;52.136;5.584;2022-07-29T03:45:16;16.40;99.90
23723;DHT22;12042;52.136;5.584;2022-07-29T03:47:45;16.40;99.90
23723;DHT22;12042;52.136;5.584;2022-07-29T03:50:14;16.40;99.90
23723;DHT22;12042;52.136;5.584;2022-07-29T03:52:40;16.60;99.90
23723;DHT22;12042;52.136;5.584;2022-07-29T03:55:07;16.40;99.90
23723;DHT22;12042;52.136;5.584;2022-07-29T03:57:35;16.50;99.90
23723;DHT22;12042;52.136;5.584;2022-07-29T04:00:03;16.50;99.90
23723;DHT22;12042;52.136;5.584;2022-07-29T04:02:30;16.40;99.90
23723;DHT22;12042;52.136;5.584;2022-07-29T04:04:57;16.40;99.90
23723;DHT22;12042;52.136;5.584;2022-07-29T04:07:22;16.30;99.90
23723;DHT22;12042;52.136;5.584;2022-07-29T04:09:48;16.70;99.90
23723;DHT22;12042;52.136;5.584;2022-07-29T04:12:14;16.50;99.90
23723;DHT22;12042;52.136;5.584;2022-07-29T04:14:40;16.60;99.90
23723;DHT22;12042;52.136;5.584;2022-07-29T04:17:05;16.40;99.90
23723;DHT22;12042;52.136;5.584;2022-07-29T04:19:32;16.30;99.90
23723;DHT22;12042;52.136;5.584;2022-07-29T04:21:58;16.50;99.90
23723;DHT22;12042;52.136;5.584;2022-07-29T04:24:24;16.50;99.90
23723;DHT22;12042;52.136;5.584;2022-07-29T04:26:50;16.30;99.90
23723;DHT22;12042;52.136;5.584;2022-07-29T04:29:16;16.30;99.90
23723;DHT22;12042;52.136;5.584;2022-07-29T04:31:43;16.50;99.90
23723;DHT22;12042;52.136;5.584;2022-07-29T04:34:09;16.30;99.90
23723;DHT22;12042;52.136;5.584;2022-07-29T04:36:38;16.30;99.90
23723;DHT22;12042;52.136;5.584;2022-07-29T04:39:04;16.20;99.90
23723;DHT22;12042;52.136;5.584;2022-07-29T04:41:30;16.30;99.90
23723;DHT22;12042;52.136;5.584;2022-07-29T04:43:56;16.40;99.90
23723;DHT22;12042;52.136;5.584;2022-07-29T04:46:22;16.30;99.90
23723;DHT22;12042;52.136;5.584;2022-07-29T04:48:48;16.40;99.90
23723;DHT22;12042;52.136;5.584;2022-07-29T04:51:15;16.40;99.90
23723;DHT22;12042;52.136;5.584;2022-07-29T04:53:40;16.50;99.90
23723;DHT22;12042;52.136;5.584;2022-07-29T04:56:06;16.60;99.90
23723;DHT22;12042;52.136;5.584;2022-07-29T04:58:34;16.70;99.90
23723;DHT22;12042;52.136;5.584;2022-07-29T05:01:00;16.30;99.90
23723;DHT22;12042;52.136;5.584;2022-07-29T05:03:26;16.30;99.90
23723;DHT22;12042;52.136;5.584;2022-07-29T05:05:52;16.30;99.90
23723;DHT22;12042;52.136;5.584;2022-07-29T05:08:17;16.30;99.90
23723;DHT22;12042;52.136;5.584;2022-07-29T05:10:43;16.20;99.90
23723;DHT22;12042;52.136;5.584;2022-07-29T05:13:08;16.30;99.90
23723;DHT22;12042;52.136;5.584;2022-07-29T05:15:35;16.20;99.90
23723;DHT22;12042;52.136;5.584;2022-07-29T05:18:01;16.30;99.90
23723;DHT22;12042;52.136;5.584;2022-07-29T05:20:27;16.40;99.90
23723;DHT22;12042;52.136;5.584;2022-07-29T05:22:58;16.10;99.90
23723;DHT22;12042;52.136;5.584;2022-07-29T05:25:25;16.50;99.90
23723;DHT22;12042;52.136;5.584;2022-07-29T05:27:51;16.20;99.90
23723;DHT22;12042;52.136;5.584;2022-07-29T05:30:18;16.20;99.90
23723;DHT22;12042;52.136;5.584;2022-07-29T05:32:44;16.20;99.90
23723;DHT22;12042;52.136;5.584;2022-07-29T05:35:10;16.20;99.90
23723;DHT22;12042;52.136;5.584;2022-07-29T05:37:35;16.10;99.90
23723;DHT22;12042;52.136;5.584;2022-07-29T05:40:02;16.10;99.90
23723;DHT22;12042;52.136;5.584;2022-07-29T05:42:27;16.20;99.90
23723;DHT22;12042;52.136;5.584;2022-07-29T05:44:54;16.20;99.90
23723;DHT22;12042;52.136;5.584;2022-07-29T05:47:20;16.30;99.90
23723;DHT22;12042;52.136;5.584;2022-07-29T05:49:45;16.20;99.90
23723;DHT22;12042;52.136;5.584;2022-07-29T05:52:11;16.40;99.90
23723;DHT22;12042;52.136;5.584;2022-07-29T05:54:38;16.50;99.90
23723;DHT22;12042;52.136;5.584;2022-07-29T05:57:04;16.30;99.90
23723;DHT22;12042;52.136;5.584;2022-07-29T05:59:31;16.40;99.90
23723;DHT22;12042;52.136;5.584;2022-07-29T06:02:00;16.60;99.90
23723;DHT22;12042;52.136;5.584;2022-07-29T06:04:25;16.30;99.90
23723;DHT22;12042;52.136;5.584;2022-07-29T06:06:51;16.50;99.90
23723;DHT22;12042;52.136;5.584;2022-07-29T06:09:17;16.50;99.90
23723;DHT22;12042;52.136;5.584;2022-07-29T06:11:42;16.60;99.90
23723;DHT22;12042;52.136;5.584;2022-07-29T06:14:08;16.60;99.90
23723;DHT22;12042;52.136;5.584;2022-07-29T06:16:34;16.60;99.90
23723;DHT22;12042;52.136;5.584;2022-07-29T06:18:59;16.50;99.90
23723;DHT22;12042;52.136;5.584;2022-07-29T06:21:25;16.50;99.90
23723;DHT22;12042;52.136;5.584;2022-07-29T06:23:51;16.60;99.90
23723;DHT22;12042;52.136;5.584;2022-07-29T06:26:16;16.50;99.90
23723;DHT22;12042;52.136;5.584;2022-07-29T06:28:42;16.50;99.90
23723;DHT22;12042;52.136;5.584;2022-07-29T06:31:07;16.50;99.90
23723;DHT22;12042;52.136;5.584;2022-07-29T06:33:33;16.90;99.90
23723;DHT22;12042;52.136;5.584;2022-07-29T06:35:59;16.80;99.90
23723;DHT22;12042;52.136;5.584;2022-07-29T06:38:25;16.80;99.90
23723;DHT22;12042;52.136;5.584;2022-07-29T06:40:50;16.80;99.90
23723;DHT22;12042;52.136;5.584;2022-07-29T06:43:35;16.80;99.90
23723;DHT22;12042;52.136;5.584;2022-07-29T06:46:04;17.00;99.90
23723;DHT22;12042;52.136;5.584;2022-07-29T06:48:31;16.80;99.90
23723;DHT22;12042;52.136;5.584;2022-07-29T06:50:57;17.00;99.90
23723;DHT22;12042;52.136;5.584;2022-07-29T06:53:23;16.70;99.90
23723;DHT22;12042;52.136;5.584;2022-07-29T06:55:49;16.80;99.90
23723;DHT22;12042;52.136;5.584;2022-07-29T06:58:15;16.90;99.90
23723;DHT22;12042;52.136;5.584;2022-07-29T07:00:43;16.90;99.90
23723;DHT22;12042;52.136;5.584;2022-07-29T07:03:09;17.10;99.90
23723;DHT22;12042;52.136;5.584;2022-07-29T07:05:35;17.10;99.90
23723;DHT22;12042;52.136;5.584;2022-07-29T07:08:00;17.10;99.90
23723;DHT22;12042;52.136;5.584;2022-07-29T07:10:26;17.30;99.90
23723;DHT22;12042;52.136;5.584;2022-07-29T07:12:52;17.30;99.90
23723;DHT22;12042;52.136;5.584;2022-07-29T07:15:18;17.30;99.90
23723;DHT22;12042;52.136;5.584;2022-07-29T07:17:48;17.30;99.90
23723;DHT22;12042;52.136;5.584;2022-07-29T07:20:14;17.30;99.90
23723;DHT22;12042;52.136;5.584;2022-07-29T07:22:40;17.30;99.90
23723;DHT22;12042;52.136;5.584;2022-07-29T07:25:06;17.50;99.90
23723;DHT22;12042;52.136;5.584;2022-07-29T07:27:32;17.30;99.90
23723;DHT22;12042;52.136;5.584;2022-07-29T07:29:57;17.40;99.90
23723;DHT22;12042;52.136;5.584;2022-07-29T07:32:23;17.30;99.90
23723;DHT22;12042;52.136;5.584;2022-07-29T07:34:49;17.30;99.90
23723;DHT22;12042;52.136;5.584;2022-07-29T07:37:14;17.50;99.90
23723;DHT22;12042;52.136;5.584;2022-07-29T07:39:41;17.70;99.90
23723;DHT22;12042;52.136;5.584;2022-07-29T07:42:07;17.80;99.90
23723;DHT22;12042;52.136;5.584;2022-07-29T07:44:32;17.80;99.90
23723;DHT22;12042;52.136;5.584;2022-07-29T07:46:58;17.80;99.90
23723;DHT22;12042;52.136;5.584;2022-07-29T07:49:23;18.10;99.90
23723;DHT22;12042;52.136;5.584;2022-07-29T07:51:49;18.40;99.90
23723;DHT22;12042;52.136;5.584;2022-07-29T07:54:15;18.30;99.90
23723;DHT22;12042;52.136;5.584;2022-07-29T07:56:40;18.20;99.90
23723;DHT22;12042;52.136;5.584;2022-07-29T07:59:06;18.30;99.90
23723;DHT22;12042;52.136;5.584;2022-07-29T08:01:32;18.60;99.90
23723;DHT22;12042;52.136;5.584;2022-07-29T08:03:57;18.70;99.90
23723;DHT22;12042;52.136;5.584;2022-07-29T08:06:24;18.90;99.90
23723;DHT22;12042;52.136;5.584;2022-07-29T08:08:50;19.40;99.90
23723;DHT22;12042;52.136;5.584;2022-07-29T08:11:16;19.70;99.90
23723;DHT22;12042;52.136;5.584;2022-07-29T08:13:42;20.20;99.90
23723;DHT22;12042;52.136;5.584;2022-07-29T08:16:08;20.50;99.90
23723;DHT22;12042;52.136;5.584;2022-07-29T08:18:38;20.80;99.90
23723;DHT22;12042;52.136;5.584;2022-07-29T08:21:04;21.10;99.90
23723;DHT22;12042;52.136;5.584;2022-07-29T08:23:30;21.60;99.90
23723;DHT22;12042;52.136;5.584;2022-07-29T08:26:04;22.00;99.90
23723;DHT22;12042;52.136;5.584;2022-07-29T08:28:30;22.50;99.90
23723;DHT22;12042;52.136;5.584;2022-07-29T08:30:56;22.40;99.90
23723;DHT22;12042;52.136;5.584;2022-07-29T08:33:21;22.40;99.90
23723;DHT22;12042;52.136;5.584;2022-07-29T08:35:47;22.20;99.90
23723;DHT22;12042;52.136;5.584;2022-07-29T08:38:15;22.20;99.90
23723;DHT22;12042;52.136;5.584;2022-07-29T08:40:41;22.20;99.90
23723;DHT22;12042;52.136;5.584;2022-07-29T08:43:08;22.50;99.90
23723;DHT22;12042;52.136;5.584;2022-07-29T08:45:44;22.30;99.90
23723;DHT22;12042;52.136;5.584;2022-07-29T08:48:12;22.30;99.90
23723;DHT22;12042;52.136;5.584;2022-07-29T08:50:38;22.20;99.90
23723;DHT22;12042;52.136;5.584;2022-07-29T08:53:06;22.30;99.90
23723;DHT22;12042;52.136;5.584;2022-07-29T08:55:32;22.60;99.90
23723;DHT22;12042;52.136;5.584;2022-07-29T08:57:58;23.00;99.90
23723;DHT22;12042;52.136;5.584;2022-07-29T09:00:25;23.40;99.90
23723;DHT22;12042;52.136;5.584;2022-07-29T09:02:57;23.40;99.90
23723;DHT22;12042;52.136;5.584;2022-07-29T09:05:24;23.50;99.90
23723;DHT22;12042;52.136;5.584;2022-07-29T09:07:51;23.40;99.90
23723;DHT22;12042;52.136;5.584;2022-07-29T09:10:17;23.20;99.90
23723;DHT22;12042;52.136;5.584;2022-07-29T09:12:43;23.40;99.90
23723;DHT22;12042;52.136;5.584;2022-07-29T09:15:09;23.30;99.90
23723;DHT22;12042;52.136;5.584;2022-07-29T09:17:47;23.10;99.90
23723;DHT22;12042;52.136;5.584;2022-07-29T09:20:18;23.20;99.90
23723;DHT22;12042;52.136;5.584;2022-07-29T09:22:45;23.00;99.90
23723;DHT22;12042;52.136;5.584;2022-07-29T09:25:32;22.90;99.90
23723;DHT22;12042;52.136;5.584;2022-07-29T09:28:06;23.10;99.90
23723;DHT22;12042;52.136;5.584;2022-07-29T09:30:33;23.20;99.90
23723;DHT22;12042;52.136;5.584;2022-07-29T09:33:01;23.10;99.90
23723;DHT22;12042;52.136;5.584;2022-07-29T09:35:30;22.90;99.90
23723;DHT22;12042;52.136;5.584;2022-07-29T09:37:56;22.70;99.90
23723;DHT22;12042;52.136;5.584;2022-07-29T09:40:23;22.70;99.90
23723;DHT22;12042;52.136;5.584;2022-07-29T09:42:50;22.80;99.90
23723;DHT22;12042;52.136;5.584;2022-07-29T09:45:31;22.60;99.90
23723;DHT22;12042;52.136;5.584;2022-07-29T09:47:57;22.90;99.90
23723;DHT22;12042;52.136;5.584;2022-07-29T09:50:42;22.80;99.90
23723;DHT22;12042;52.136;5.584;2022-07-29T09:53:09;22.80;99.90
23723;DHT22;12042;52.136;5.584;2022-07-29T09:55:49;22.70;99.90
23723;DHT22;12042;52.136;5.584;2022-07-29T09:58:20;22.60;99.90
23723;DHT22;12042;52.136;5.584;2022-07-29T10:00:46;22.70;99.90
23723;DHT22;12042;52.136;5.584;2022-07-29T10:03:14;22.90;99.90
23723;DHT22;12042;52.136;5.584;2022-07-29T10:05:39;22.90;99.90
23723;DHT22;12042;52.136;5.584;2022-07-29T10:08:07;22.80;99.90
23723;DHT22;12042;52.136;5.584;2022-07-29T10:10:36;23.10;99.90
23723;DHT22;12042;52.136;5.584;2022-07-29T10:13:13;23.10;99.90
23723;DHT22;12042;52.136;5.584;2022-07-29T10:15:41;23.10;99.90
23723;DHT22;12042;52.136;5.584;2022-07-29T10:18:09;23.40;99.90
23723;DHT22;12042;52.136;5.584;2022-07-29T10:20:36;23.20;99.90
23723;DHT22;12042;52.136;5.584;2022-07-29T10:23:03;23.10;99.90
23723;DHT22;12042;52.136;5.584;2022-07-29T10:25:29;23.60;99.90
23723;DHT22;12042;52.136;5.584;2022-07-29T10:27:54;23.70;99.90
23723;DHT22;12042;52.136;5.584;2022-07-29T10:30:21;24.20;99.90
23723;DHT22;12042;52.136;5.584;2022-07-29T10:41:07;25.20;99.90
23723;DHT22;12042;52.136;5.584;2022-07-29T10:43:55;25.50;99.90
23723;DHT22;12042;52.136;5.584;2022-07-29T10:46:22;25.50;99.90
23723;DHT22;12042;52.136;5.584;2022-07-29T10:49:10;25.70;99.90
23723;DHT22;12042;52.136;5.584;2022-07-29T10:51:55;25.90;99.90
23723;DHT22;12042;52.136;5.584;2022-07-29T10:54:46;25.90;99.90
23723;DHT22;12042;52.136;5.584;2022-07-29T11:07:25;25.80;99.90
23723;DHT22;12042;52.136;5.584;2022-07-29T11:23:01;26.60;99.90
23723;DHT22;12042;52.136;5.584;2022-07-29T11:25:27;26.80;99.90
23723;DHT22;12042;52.136;5.584;2022-07-29T11:27:54;26.60;99.90
23723;DHT22;12042;52.136;5.584;2022-07-29T11:30:50;26.40;99.90
23723;DHT22;12042;52.136;5.584;2022-07-29T11:33:32;26.40;99.90
23723;DHT22;12042;52.136;5.584;2022-07-29T11:38:35;25.90;99.90
23723;DHT22;12042;52.136;5.584;2022-07-29T11:41:20;26.10;99.90
23723;DHT22;12042;52.136;5.584;2022-07-29T11:44:01;25.70;99.90
23723;DHT22;12042;52.136;5.584;2022-07-29T11:46:48;25.90;99.90
23723;DHT22;12042;52.136;5.584;2022-07-29T11:49:25;25.90;99.90
23723;DHT22;12042;52.136;5.584;2022-07-29T11:51:55;25.90;99.90
23723;DHT22;12042;52.136;5.584;2022-07-29T11:54:31;26.00;99.90
23723;DHT22;12042;52.136;5.584;2022-07-29T11:56:58;26.20;99.90
23723;DHT22;12042;52.136;5.584;2022-07-29T11:59:24;26.50;99.90
23723;DHT22;12042;52.136;5.584;2022-07-29T12:01:58;26.30;99.90
23723;DHT22;12042;52.136;5.584;2022-07-29T12:04:24;26.60;99.90
23723;DHT22;12042;52.136;5.584;2022-07-29T12:06:54;26.90;99.90
23723;DHT22;12042;52.136;5.584;2022-07-29T12:09:20;27.00;99.90
23723;DHT22;12042;52.136;5.584;2022-07-29T12:11:47;26.80;99.90
23723;DHT22;12042;52.136;5.584;2022-07-29T12:14:29;26.60;99.90
23723;DHT22;12042;52.136;5.584;2022-07-29T12:16:56;26.40;99.90
23723;DHT22;12042;52.136;5.584;2022-07-29T12:19:22;26.30;99.90
23723;DHT22;12042;52.136;5.584;2022-07-29T12:21:52;26.20;99.90
23723;DHT22;12042;52.136;5.584;2022-07-29T12:24:20;25.90;99.90
23723;DHT22;12042;52.136;5.584;2022-07-29T12:26:57;26.20;99.90
23723;DHT22;12042;52.136;5.584;2022-07-29T12:29:24;26.10;99.90
23723;DHT22;12042;52.136;5.584;2022-07-29T12:31:53;26.40;99.90
23723;DHT22;12042;52.136;5.584;2022-07-29T12:34:21;26.50;99.90
23723;DHT22;12042;52.136;5.584;2022-07-29T12:36:48;26.80;99.90
23723;DHT22;12042;52.136;5.584;2022-07-29T12:39:16;26.50;99.90
23723;DHT22;12042;52.136;5.584;2022-07-29T12:41:42;26.50;99.90
23723;DHT22;12042;52.136;5.584;2022-07-29T12:44:08;26.50;99.90
23723;DHT22;12042;52.136;5.584;2022-07-29T12:46:34;26.50;99.90
23723;DHT22;12042;52.136;5.584;2022-07-29T12:48:59;26.30;99.90
23723;DHT22;12042;52.136;5.584;2022-07-29T12:51:36;26.50;99.90
23723;DHT22;12042;52.136;5.584;2022-07-29T12:54:07;26.40;99.90
23723;DHT22;12042;52.136;5.584;2022-07-29T12:56:33;26.90;99.90
23723;DHT22;12042;52.136;5.584;2022-07-29T12:58:59;27.10;99.90
23723;DHT22;12042;52.136;5.584;2022-07-29T13:01:25;27.40;99.90
23723;DHT22;12042;52.136;5.584;2022-07-29T13:03:57;27.60;99.90
23723;DHT22;12042;52.136;5.584;2022-07-29T13:06:42;27.70;99.90
23723;DHT22;12042;52.136;5.584;2022-07-29T13:09:19;27.40;99.90
23723;DHT22;12042;52.136;5.584;2022-07-29T13:11:46;27.40;99.90
23723;DHT22;12042;52.136;5.584;2022-07-29T13:19:39;27.20;99.90
23723;DHT22;12042;52.136;5.584;2022-07-29T13:22:10;27.20;99.90
23723;DHT22;12042;52.136;5.584;2022-07-29T13:27:20;27.40;99.90
23723;DHT22;12042;52.136;5.584;2022-07-29T13:29:46;27.70;99.90
23723;DHT22;12042;52.136;5.584;2022-07-29T13:32:13;27.80;99.90
23723;DHT22;12042;52.136;5.584;2022-07-29T13:34:39;27.60;99.90
23723;DHT22;12042;52.136;5.584;2022-07-29T13:37:04;27.50;99.90
23723;DHT22;12042;52.136;5.584;2022-07-29T13:39:30;27.30;99.90
23723;DHT22;12042;52.136;5.584;2022-07-29T13:41:56;27.50;99.90
23723;DHT22;12042;52.136;5.584;2022-07-29T13:44:22;27.60;99.90
23723;DHT22;12042;52.136;5.584;2022-07-29T13:46:47;28.00;99.90
23723;DHT22;12042;52.136;5.584;2022-07-29T13:49:13;27.60;99.90
23723;DHT22;12042;52.136;5.584;2022-07-29T13:51:38;27.60;99.90
23723;DHT22;12042;52.136;5.584;2022-07-29T13:54:05;27.70;99.90
23723;DHT22;12042;52.136;5.584;2022-07-29T13:56:30;27.80;99.90
23723;DHT22;12042;52.136;5.584;2022-07-29T13:58:56;27.50;99.90
23723;DHT22;12042;52.136;5.584;2022-07-29T14:01:22;27.40;99.90
23723;DHT22;12042;52.136;5.584;2022-07-29T14:03:48;27.70;99.90
23723;DHT22;12042;52.136;5.584;2022-07-29T14:06:14;27.80;99.90
23723;DHT22;12042;52.136;5.584;2022-07-29T14:08:39;27.60;99.90
23723;DHT22;12042;52.136;5.584;2022-07-29T14:11:05;27.80;99.90
23723;DHT22;12042;52.136;5.584;2022-07-29T14:13:31;28.20;99.90
23723;DHT22;12042;52.136;5.584;2022-07-29T14:15:57;28.00;99.90
23723;DHT22;12042;52.136;5.584;2022-07-29T14:18:25;27.80;99.90
23723;DHT22;12042;52.136;5.584;2022-07-29T14:20:51;28.20;99.90
23723;DHT22;12042;52.136;5.584;2022-07-29T14:23:17;28.60;99.90
23723;DHT22;12042;52.136;5.584;2022-07-29T14:25:43;28.90;99.90
23723;DHT22;12042;52.136;5.584;2022-07-29T14:28:08;29.10;99.90
23723;DHT22;12042;52.136;5.584;2022-07-29T14:30:34;28.70;99.90
23723;DHT22;12042;52.136;5.584;2022-07-29T14:33:00;29.30;99.90
23723;DHT22;12042;52.136;5.584;2022-07-29T14:35:26;29.30;99.90
23723;DHT22;12042;52.136;5.584;2022-07-29T14:37:51;28.80;99.90
23723;DHT22;12042;52.136;5.584;2022-07-29T14:40:17;28.50;99.90
23723;DHT22;12042;52.136;5.584;2022-07-29T14:42:42;28.50;99.90
23723;DHT22;12042;52.136;5.584;2022-07-29T14:45:11;28.40;99.90
23723;DHT22;12042;52.136;5.584;2022-07-29T14:47:38;28.10;99.90
23723;DHT22;12042;52.136;5.584;2022-07-29T14:50:05;28.30;99.90
23723;DHT22;12042;52.136;5.584;2022-07-29T14:52:31;28.40;99.90
23723;DHT22;12042;52.136;5.584;2022-07-29T14:54:57;28.90;99.90
23723;DHT22;12042;52.136;5.584;2022-07-29T14:57:23;29.00;99.90
23723;DHT22;12042;52.136;5.584;2022-07-29T14:59:48;29.20;99.90
23723;DHT22;12042;52.136;5.584;2022-07-29T15:02:14;29.20;99.90
23723;DHT22;12042;52.136;5.584;2022-07-29T15:04:40;29.20;99.90
23723;DHT22;12042;52.136;5.584;2022-07-29T15:07:05;29.00;99.90
23723;DHT22;12042;52.136;5.584;2022-07-29T15:09:31;29.10;99.90
23723;DHT22;12042;52.136;5.584;2022-07-29T15:11:56;29.20;99.90
23723;DHT22;12042;52.136;5.584;2022-07-29T15:14:22;29.30;99.90
23723;DHT22;12042;52.136;5.584;2022-07-29T15:16:48;29.40;99.90
23723;DHT22;12042;52.136;5.584;2022-07-29T15:19:14;29.20;99.90
23723;DHT22;12042;52.136;5.584;2022-07-29T15:21:39;29.00;99.90
23723;DHT22;12042;52.136;5.584;2022-07-29T15:24:05;29.00;99.90
23723;DHT22;12042;52.136;5.584;2022-07-29T15:26:32;28.80;99.90
23723;DHT22;12042;52.136;5.584;2022-07-29T15:28:59;28.80;99.90
23723;DHT22;12042;52.136;5.584;2022-07-29T15:31:25;29.10;99.90
23723;DHT22;12042;52.136;5.584;2022-07-29T15:33:50;29.20;99.90
23723;DHT22;12042;52.136;5.584;2022-07-29T15:36:16;29.00;99.90
23723;DHT22;12042;52.136;5.584;2022-07-29T15:38:41;28.50;99.90
23723;DHT22;12042;52.136;5.584;2022-07-29T15:41:07;28.50;99.90
23723;DHT22;12042;52.136;5.584;2022-07-29T15:43:33;28.50;99.90
23723;DHT22;12042;52.136;5.584;2022-07-29T15:46:00;28.70;99.90
23723;DHT22;12042;52.136;5.584;2022-07-29T15:48:45;28.80;99.90
23723;DHT22;12042;52.136;5.584;2022-07-29T15:51:10;29.20;99.90
23723;DHT22;12042;52.136;5.584;2022-07-29T15:53:36;29.20;99.90
23723;DHT22;12042;52.136;5.584;2022-07-29T15:56:02;29.30;99.90
23723;DHT22;12042;52.136;5.584;2022-07-29T15:58:28;29.30;99.90
23723;DHT22;12042;52.136;5.584;2022-07-29T16:00:53;29.30;99.90
23723;DHT22;12042;52.136;5.584;2022-07-29T16:03:19;29.20;99.90
23723;DHT22;12042;52.136;5.584;2022-07-29T16:05:45;28.70;99.90
23723;DHT22;12042;52.136;5.584;2022-07-29T16:08:10;28.30;99.90
23723;DHT22;12042;52.136;5.584;2022-07-29T16:10:36;28.20;99.90
23723;DHT22;12042;52.136;5.584;2022-07-29T16:13:02;28.40;99.90
23723;DHT22;12042;52.136;5.584;2022-07-29T16:15:27;28.20;99.90
23723;DHT22;12042;52.136;5.584;2022-07-29T16:17:53;28.10;99.90
23723;DHT22;12042;52.136;5.584;2022-07-29T16:20:19;27.90;99.90
23723;DHT22;12042;52.136;5.584;2022-07-29T16:22:45;27.60;99.90
23723;DHT22;12042;52.136;5.584;2022-07-29T16:25:10;27.90;99.90